AUR2AL EGJJ-EGJB

Flight info

Callsign AUR2AL
Flight time 0h 15m
Altitude 3500
Route GUR
Aircraft SH36/M-SDFGRY/S

Departure

Time 2026-05-08 18:34
Airport Jersey Airport (EGJJ)

Arrival

Time 2026-05-08 18:50
Airport Guernsey Airport (EGJB)
Time Latitude Longitude Altitude Speed Heading
2026-05-08 17:38 49.20544 -2.19859 275 ft 0 kts 175°
2026-05-08 18:28 49.20542 -2.19859 275 ft 3 kts 178°
2026-05-08 18:29 49.20566 -2.19883 275 ft 14 kts 16°
2026-05-08 18:29 49.20598 -2.19865 275 ft 0 kts 47°
2026-05-08 18:30 49.20612 -2.19868 275 ft 5 kts 308°
2026-05-08 18:30 49.20544 -2.19933 275 ft 15 kts 183°
2026-05-08 18:30 49.20553 -2.20155 275 ft 32 kts 286°
2026-05-08 18:30 49.20595 -2.20382 275 ft 13 kts 286°
2026-05-08 18:31 49.20620 -2.20514 274 ft 0 kts 283°
2026-05-08 18:33 49.20626 -2.20566 274 ft 15 kts 277°
2026-05-08 18:33 49.20686 -2.20687 274 ft 18 kts 29°
2026-05-08 18:33 49.20711 -2.20594 273 ft 13 kts 82°
2026-05-08 18:33 49.20744 -2.20207 273 ft 66 kts 83°
2026-05-08 18:34 49.20820 -2.19284 284 ft 105 kts 83°
2026-05-08 18:34 49.20915 -2.18080 435 ft 120 kts 82°
2026-05-08 18:34 49.21031 -2.16763 646 ft 127 kts 81°
2026-05-08 18:34 49.21102 -2.15439 974 ft 123 kts 85°
2026-05-08 18:35 49.21131 -2.14108 1186 ft 129 kts 91°
2026-05-08 18:35 49.21091 -2.12712 1427 ft 132 kts 90°
2026-05-08 18:35 49.21204 -2.11322 1679 ft 135 kts 66°
2026-05-08 18:35 49.21846 -2.10256 1955 ft 140 kts 38°
2026-05-08 18:36 49.22854 -2.10086 2128 ft 158 kts 357°
2026-05-08 18:36 49.24030 -2.10242 2062 ft 178 kts
2026-05-08 18:36 49.25284 -2.10315 2048 ft 184 kts
2026-05-08 18:36 49.26510 -2.10898 2031 ft 197 kts 323°
2026-05-08 18:37 49.27211 -2.12699 2072 ft 200 kts 289°
2026-05-08 18:37 49.27633 -2.14752 2056 ft 203 kts 287°
2026-05-08 18:37 49.28077 -2.16817 2043 ft 206 kts 288°
2026-05-08 18:37 49.28528 -2.18905 2052 ft 206 kts 288°
2026-05-08 18:38 49.28969 -2.21004 2051 ft 207 kts 288°
2026-05-08 18:38 49.29408 -2.23110 2061 ft 207 kts 287°
2026-05-08 18:38 49.29850 -2.25200 2038 ft 206 kts 288°
2026-05-08 18:38 49.30288 -2.27275 2039 ft 204 kts 288°
2026-05-08 18:39 49.30721 -2.29347 2038 ft 204 kts 288°
2026-05-08 18:39 49.31152 -2.31416 2037 ft 204 kts 287°
2026-05-08 18:39 49.31583 -2.33463 2036 ft 204 kts 288°
2026-05-08 18:39 49.32013 -2.35532 2036 ft 204 kts 288°
2026-05-08 18:40 49.32446 -2.37605 2040 ft 204 kts 287°
2026-05-08 18:40 49.32881 -2.39678 2042 ft 204 kts 288°
2026-05-08 18:40 49.33317 -2.41757 2044 ft 205 kts 288°
2026-05-08 18:40 49.33752 -2.43832 2056 ft 204 kts 287°
2026-05-08 18:41 49.34192 -2.45904 2046 ft 204 kts 287°
2026-05-08 18:41 49.34635 -2.47971 2041 ft 204 kts 288°
2026-05-08 18:41 49.35070 -2.50045 2050 ft 204 kts 288°
2026-05-08 18:41 49.35395 -2.52152 2041 ft 203 kts 277°
2026-05-08 18:42 49.35585 -2.54289 2041 ft 202 kts 276°
2026-05-08 18:42 49.35765 -2.56431 2047 ft 203 kts 276°
2026-05-08 18:42 49.35946 -2.58587 2046 ft 204 kts 276°
2026-05-08 18:42 49.36124 -2.60749 2045 ft 205 kts 276°
2026-05-08 18:43 49.36302 -2.62920 2056 ft 205 kts 276°
2026-05-08 18:43 49.36483 -2.65077 2055 ft 204 kts 276°
2026-05-08 18:43 49.36672 -2.67241 2052 ft 205 kts 276°
2026-05-08 18:43 49.36860 -2.69397 2063 ft 203 kts 276°
2026-05-08 18:44 49.37046 -2.71546 2055 ft 203 kts 276°
2026-05-08 18:44 49.37234 -2.73699 2051 ft 204 kts 276°
2026-05-08 18:44 49.37420 -2.75833 2055 ft 204 kts 276°
2026-05-08 18:44 49.37611 -2.77985 2058 ft 203 kts 276°
2026-05-08 18:45 49.37800 -2.80135 2048 ft 204 kts 276°
2026-05-08 18:45 49.38152 -2.82228 2010 ft 205 kts 302°
2026-05-08 18:45 49.39265 -2.83445 2026 ft 198 kts 352°
2026-05-08 18:45 49.40529 -2.83005 2047 ft 186 kts 42°
2026-05-08 18:46 49.41333 -2.81510 2054 ft 181 kts 59°
2026-05-08 18:46 49.42056 -2.79915 2055 ft 183 kts 59°
2026-05-08 18:46 49.42704 -2.78283 2134 ft 172 kts 73°
2026-05-08 18:46 49.42978 -2.76635 2337 ft 151 kts 82°
2026-05-08 18:47 49.43145 -2.75055 2268 ft 153 kts 85°
2026-05-08 18:47 49.43216 -2.73383 1987 ft 155 kts 91°
2026-05-08 18:47 49.43219 -2.71791 1826 ft 143 kts 92°
2026-05-08 18:47 49.43216 -2.70253 1481 ft 144 kts 90°
2026-05-08 18:48 49.43228 -2.68713 1095 ft 144 kts 92°
2026-05-08 18:48 49.43271 -2.67199 949 ft 143 kts 84°
2026-05-08 18:48 49.43336 -2.65711 813 ft 134 kts 86°
2026-05-08 18:48 49.43379 -2.64337 648 ft 126 kts 86°
2026-05-08 18:49 49.43424 -2.63072 513 ft 113 kts 88°
2026-05-08 18:49 49.43452 -2.61883 380 ft 110 kts 90°
2026-05-08 18:49 49.43486 -2.60777 308 ft 95 kts 88°
2026-05-08 18:49 49.43503 -2.59981 315 ft 61 kts 87°
2026-05-08 18:50 49.43517 -2.59514 324 ft 42 kts 87°
2026-05-08 18:50 49.43514 -2.59210 329 ft 11 kts 141°
2026-05-08 18:50 49.43390 -2.59220 326 ft 17 kts 227°
2026-05-08 18:50 49.43379 -2.59245 327 ft 0 kts 250°
2026-05-08 18:51 49.43379 -2.59246 327 ft 1 kts 250°
2026-05-08 18:51 49.43369 -2.59378 325 ft 23 kts 268°
2026-05-08 18:51 49.43363 -2.59626 322 ft 17 kts 269°
2026-05-08 18:52 49.43326 -2.59749 320 ft 10 kts 173°
2026-05-08 18:52 49.43282 -2.59746 320 ft 0 kts 179°